Pipestone, Minnesota
Current Conditions -  °F | °C
As of 11:14 PM on Thursday 30 Oct 2014 (Local Time) from KPQN Reporting Station
Clear Clear  
Wind Chill: 21°   Ceiling: Unl
Heat Index: 30°   Visibility: 10mi
Dew Point: 19°   Wind: 12mph
Humidity: 64%   Direction: 10°N
Pressure: 30.43"   Gusts: 18mph
Location:  44°N, 96.32°W
Report Text: KPQN 310414Z AUTO 01010G16KT 10SM CLR M01/M07 A3043 RMK AO2
Loading
Personal Weather Stations






























Interactive Weather Map
Tropical Storm Tracking
New forecast layout! Learn more

10-Day Weather Forecast

Advertisements
Track Severe Weather on mobile